sensor_id;sensor_type;location;lat;lon;timestamp;P1;durP1;ratioP1;P2;durP2;ratioP2
76176;SDS011;64938;47.696;8.066;2022-12-18T00:03:51;19.53;;;10.60;;
76176;SDS011;64938;47.696;8.066;2022-12-18T00:06:18;19.67;;;11.03;;
76176;SDS011;64938;47.696;8.066;2022-12-18T00:08:44;18.53;;;10.90;;
76176;SDS011;64938;47.696;8.066;2022-12-18T00:11:11;14.63;;;9.80;;
76176;SDS011;64938;47.696;8.066;2022-12-18T00:13:38;14.40;;;9.50;;
76176;SDS011;64938;47.696;8.066;2022-12-18T00:16:05;16.53;;;9.30;;
76176;SDS011;64938;47.696;8.066;2022-12-18T00:18:38;22.50;;;9.97;;
76176;SDS011;64938;47.696;8.066;2022-12-18T00:21:05;15.53;;;9.17;;
76176;SDS011;64938;47.696;8.066;2022-12-18T00:23:33;20.70;;;10.33;;
76176;SDS011;64938;47.696;8.066;2022-12-18T00:25:59;19.60;;;9.83;;
76176;SDS011;64938;47.696;8.066;2022-12-18T00:28:29;11.67;;;7.70;;
76176;SDS011;64938;47.696;8.066;2022-12-18T00:33:29;16.50;;;9.97;;
76176;SDS011;64938;47.696;8.066;2022-12-18T00:35:59;28.50;;;10.43;;
76176;SDS011;64938;47.696;8.066;2022-12-18T00:38:26;24.80;;;10.87;;
76176;SDS011;64938;47.696;8.066;2022-12-18T00:40:54;41.10;;;12.30;;
76176;SDS011;64938;47.696;8.066;2022-12-18T00:43:22;57.67;;;13.10;;
76176;SDS011;64938;47.696;8.066;2022-12-18T00:45:48;150.20;;;20.87;;
76176;SDS011;64938;47.696;8.066;2022-12-18T00:48:13;166.40;;;20.63;;
76176;SDS011;64938;47.696;8.066;2022-12-18T00:50:39;56.10;;;13.53;;
76176;SDS011;64938;47.696;8.066;2022-12-18T00:53:05;72.83;;;14.37;;
76176;SDS011;64938;47.696;8.066;2022-12-18T00:55:31;43.70;;;14.30;;
76176;SDS011;64938;47.696;8.066;2022-12-18T00:58:02;31.47;;;12.23;;
76176;SDS011;64938;47.696;8.066;2022-12-18T01:00:28;37.50;;;13.47;;
76176;SDS011;64938;47.696;8.066;2022-12-18T01:02:53;27.00;;;12.90;;
76176;SDS011;64938;47.696;8.066;2022-12-18T01:05:22;53.93;;;15.80;;
76176;SDS011;64938;47.696;8.066;2022-12-18T01:07:47;30.87;;;15.63;;
76176;SDS011;64938;47.696;8.066;2022-12-18T01:10:15;80.03;;;17.00;;
76176;SDS011;64938;47.696;8.066;2022-12-18T01:12:41;70.23;;;17.30;;
76176;SDS011;64938;47.696;8.066;2022-12-18T01:15:07;48.03;;;17.43;;
76176;SDS011;64938;47.696;8.066;2022-12-18T01:17:33;71.87;;;18.43;;
76176;SDS011;64938;47.696;8.066;2022-12-18T01:20:06;43.73;;;14.07;;
76176;SDS011;64938;47.696;8.066;2022-12-18T01:22:32;96.37;;;19.40;;
76176;SDS011;64938;47.696;8.066;2022-12-18T01:24:59;52.03;;;15.67;;
76176;SDS011;64938;47.696;8.066;2022-12-18T01:27:24;61.23;;;16.40;;
76176;SDS011;64938;47.696;8.066;2022-12-18T01:29:50;56.03;;;15.93;;
76176;SDS011;64938;47.696;8.066;2022-12-18T01:32:15;53.50;;;15.47;;
76176;SDS011;64938;47.696;8.066;2022-12-18T01:34:41;31.90;;;12.57;;
76176;SDS011;64938;47.696;8.066;2022-12-18T01:37:07;32.30;;;13.20;;
76176;SDS011;64938;47.696;8.066;2022-12-18T01:39:32;28.80;;;14.70;;
76176;SDS011;64938;47.696;8.066;2022-12-18T01:41:59;54.17;;;17.63;;
76176;SDS011;64938;47.696;8.066;2022-12-18T01:48:08;40.20;;;15.73;;
76176;SDS011;64938;47.696;8.066;2022-12-18T01:50:16;50.90;;;15.40;;
76176;SDS011;64938;47.696;8.066;2022-12-18T01:52:51;44.17;;;15.63;;
76176;SDS011;64938;47.696;8.066;2022-12-18T01:55:20;34.17;;;14.07;;
76176;SDS011;64938;47.696;8.066;2022-12-18T01:57:49;123.80;;;21.17;;
76176;SDS011;64938;47.696;8.066;2022-12-18T02:00:19;106.33;;;21.20;;
76176;SDS011;64938;47.696;8.066;2022-12-18T02:02:48;128.07;;;22.80;;
76176;SDS011;64938;47.696;8.066;2022-12-18T02:05:15;115.73;;;20.57;;
76176;SDS011;64938;47.696;8.066;2022-12-18T02:11:05;226.53;;;27.70;;
76176;SDS011;64938;47.696;8.066;2022-12-18T02:18:55;155.77;;;25.87;;
76176;SDS011;64938;47.696;8.066;2022-12-18T02:27:10;210.67;;;29.93;;
76176;SDS011;64938;47.696;8.066;2022-12-18T02:29:46;323.13;;;33.93;;
76176;SDS011;64938;47.696;8.066;2022-12-18T02:32:19;191.97;;;28.37;;
76176;SDS011;64938;47.696;8.066;2022-12-18T02:34:51;175.73;;;29.10;;
76176;SDS011;64938;47.696;8.066;2022-12-18T02:37:18;257.63;;;34.43;;
76176;SDS011;64938;47.696;8.066;2022-12-18T02:39:44;215.07;;;29.73;;
76176;SDS011;64938;47.696;8.066;2022-12-18T02:42:21;247.40;;;35.77;;
76176;SDS011;64938;47.696;8.066;2022-12-18T02:44:48;231.80;;;35.23;;
76176;SDS011;64938;47.696;8.066;2022-12-18T02:47:17;116.37;;;25.93;;
76176;SDS011;64938;47.696;8.066;2022-12-18T02:57:46;204.70;;;30.67;;
76176;SDS011;64938;47.696;8.066;2022-12-18T03:00:19;142.60;;;24.40;;
76176;SDS011;64938;47.696;8.066;2022-12-18T03:02:48;169.60;;;28.37;;
76176;SDS011;64938;47.696;8.066;2022-12-18T03:05:22;129.70;;;22.03;;
76176;SDS011;64938;47.696;8.066;2022-12-18T03:07:54;96.17;;;21.97;;
76176;SDS011;64938;47.696;8.066;2022-12-18T03:10:30;116.70;;;22.77;;
76176;SDS011;64938;47.696;8.066;2022-12-18T03:13:10;148.23;;;27.80;;
76176;SDS011;64938;47.696;8.066;2022-12-18T03:15:48;89.83;;;22.77;;
76176;SDS011;64938;47.696;8.066;2022-12-18T03:18:17;164.50;;;34.55;;
76176;SDS011;64938;47.696;8.066;2022-12-18T03:20:47;202.00;;;32.03;;
76176;SDS011;64938;47.696;8.066;2022-12-18T03:23:17;243.90;;;32.57;;
76176;SDS011;64938;47.696;8.066;2022-12-18T03:25:48;270.43;;;33.40;;
76176;SDS011;64938;47.696;8.066;2022-12-18T03:28:19;95.00;;;21.27;;
76176;SDS011;64938;47.696;8.066;2022-12-18T03:30:46;145.00;;;24.57;;
76176;SDS011;64938;47.696;8.066;2022-12-18T03:33:23;209.93;;;29.63;;
76176;SDS011;64938;47.696;8.066;2022-12-18T03:35:54;125.07;;;26.20;;
76176;SDS011;64938;47.696;8.066;2022-12-18T03:38:20;82.70;;;20.33;;
76176;SDS011;64938;47.696;8.066;2022-12-18T03:40:59;170.43;;;27.90;;
76176;SDS011;64938;47.696;8.066;2022-12-18T03:43:36;182.43;;;29.60;;
76176;SDS011;64938;47.696;8.066;2022-12-18T03:46:09;103.50;;;22.67;;
76176;SDS011;64938;47.696;8.066;2022-12-18T03:48:43;154.53;;;25.03;;
76176;SDS011;64938;47.696;8.066;2022-12-18T03:51:17;100.80;;;21.10;;
76176;SDS011;64938;47.696;8.066;2022-12-18T03:54:10;112.67;;;22.70;;
76176;SDS011;64938;47.696;8.066;2022-12-18T03:56:40;57.83;;;20.10;;
76176;SDS011;64938;47.696;8.066;2022-12-18T03:59:08;193.70;;;29.60;;
76176;SDS011;64938;47.696;8.066;2022-12-18T04:01:38;148.20;;;25.80;;
76176;SDS011;64938;47.696;8.066;2022-12-18T04:04:05;179.97;;;25.97;;
76176;SDS011;64938;47.696;8.066;2022-12-18T04:06:34;265.03;;;32.50;;
76176;SDS011;64938;47.696;8.066;2022-12-18T04:09:00;164.30;;;27.40;;
76176;SDS011;64938;47.696;8.066;2022-12-18T04:11:29;77.17;;;21.07;;
76176;SDS011;64938;47.696;8.066;2022-12-18T04:13:55;122.63;;;24.30;;
76176;SDS011;64938;47.696;8.066;2022-12-18T04:16:23;142.87;;;24.90;;
76176;SDS011;64938;47.696;8.066;2022-12-18T04:18:52;109.80;;;22.83;;
76176;SDS011;64938;47.696;8.066;2022-12-18T04:21:17;121.13;;;23.70;;
76176;SDS011;64938;47.696;8.066;2022-12-18T04:23:43;133.70;;;26.77;;
76176;SDS011;64938;47.696;8.066;2022-12-18T04:26:12;63.93;;;20.37;;
76176;SDS011;64938;47.696;8.066;2022-12-18T04:28:37;110.17;;;24.83;;
76176;SDS011;64938;47.696;8.066;2022-12-18T04:31:03;141.50;;;25.50;;
76176;SDS011;64938;47.696;8.066;2022-12-18T04:33:28;106.60;;;21.90;;
76176;SDS011;64938;47.696;8.066;2022-12-18T04:35:54;118.77;;;23.60;;
76176;SDS011;64938;47.696;8.066;2022-12-18T04:38:19;78.73;;;21.60;;
76176;SDS011;64938;47.696;8.066;2022-12-18T04:40:45;172.40;;;25.87;;
76176;SDS011;64938;47.696;8.066;2022-12-18T04:43:10;159.30;;;26.57;;
76176;SDS011;64938;47.696;8.066;2022-12-18T04:45:36;96.13;;;21.63;;
76176;SDS011;64938;47.696;8.066;2022-12-18T04:48:02;118.37;;;24.77;;
76176;SDS011;64938;47.696;8.066;2022-12-18T04:50:28;139.97;;;25.87;;
76176;SDS011;64938;47.696;8.066;2022-12-18T04:52:55;153.63;;;25.80;;
76176;SDS011;64938;47.696;8.066;2022-12-18T04:55:21;237.77;;;30.83;;
76176;SDS011;64938;47.696;8.066;2022-12-18T04:57:46;176.63;;;26.80;;
76176;SDS011;64938;47.696;8.066;2022-12-18T05:00:13;199.57;;;27.70;;
76176;SDS011;64938;47.696;8.066;2022-12-18T05:02:39;103.17;;;22.50;;
76176;SDS011;64938;47.696;8.066;2022-12-18T05:05:05;84.57;;;21.87;;
76176;SDS011;64938;47.696;8.066;2022-12-18T05:07:31;46.63;;;18.90;;
76176;SDS011;64938;47.696;8.066;2022-12-18T05:09:56;279.30;;;37.20;;
76176;SDS011;64938;47.696;8.066;2022-12-18T05:12:22;303.67;;;33.63;;
76176;SDS011;64938;47.696;8.066;2022-12-18T05:14:47;119.40;;;24.20;;
76176;SDS011;64938;47.696;8.066;2022-12-18T05:17:13;201.97;;;31.50;;
76176;SDS011;64938;47.696;8.066;2022-12-18T05:19:38;155.43;;;27.07;;
76176;SDS011;64938;47.696;8.066;2022-12-18T05:22:04;301.60;;;36.70;;
76176;SDS011;64938;47.696;8.066;2022-12-18T05:24:29;190.13;;;27.43;;
76176;SDS011;64938;47.696;8.066;2022-12-18T05:26:55;418.37;;;43.17;;
76176;SDS011;64938;47.696;8.066;2022-12-18T05:29:20;52.57;;;20.33;;
76176;SDS011;64938;47.696;8.066;2022-12-18T05:31:46;91.70;;;22.53;;
76176;SDS011;64938;47.696;8.066;2022-12-18T05:34:12;267.53;;;38.60;;
76176;SDS011;64938;47.696;8.066;2022-12-18T05:36:37;296.20;;;38.10;;
76176;SDS011;64938;47.696;8.066;2022-12-18T05:39:03;325.70;;;39.23;;
76176;SDS011;64938;47.696;8.066;2022-12-18T05:41:28;119.37;;;27.13;;
76176;SDS011;64938;47.696;8.066;2022-12-18T05:43:54;242.00;;;32.67;;
76176;SDS011;64938;47.696;8.066;2022-12-18T05:46:19;179.67;;;30.40;;
76176;SDS011;64938;47.696;8.066;2022-12-18T05:48:45;51.30;;;21.47;;
76176;SDS011;64938;47.696;8.066;2022-12-18T05:51:12;190.40;;;28.00;;
76176;SDS011;64938;47.696;8.066;2022-12-18T05:53:40;254.70;;;34.37;;
76176;SDS011;64938;47.696;8.066;2022-12-18T05:56:07;261.90;;;33.33;;
76176;SDS011;64938;47.696;8.066;2022-12-18T05:58:33;97.27;;;25.00;;
76176;SDS011;64938;47.696;8.066;2022-12-18T06:01:06;178.03;;;28.03;;
76176;SDS011;64938;47.696;8.066;2022-12-18T06:03:38;258.83;;;34.63;;
76176;SDS011;64938;47.696;8.066;2022-12-18T06:06:11;148.50;;;28.90;;
76176;SDS011;64938;47.696;8.066;2022-12-18T06:08:38;150.57;;;26.23;;
76176;SDS011;64938;47.696;8.066;2022-12-18T06:11:03;195.60;;;37.60;;
76176;SDS011;64938;47.696;8.066;2022-12-18T06:13:29;232.23;;;33.73;;
76176;SDS011;64938;47.696;8.066;2022-12-18T06:15:54;346.87;;;42.60;;
76176;SDS011;64938;47.696;8.066;2022-12-18T06:18:20;152.03;;;28.87;;
76176;SDS011;64938;47.696;8.066;2022-12-18T06:20:53;240.43;;;35.33;;
76176;SDS011;64938;47.696;8.066;2022-12-18T06:23:25;239.60;;;35.83;;
76176;SDS011;64938;47.696;8.066;2022-12-18T06:25:51;191.87;;;31.30;;
76176;SDS011;64938;47.696;8.066;2022-12-18T06:28:17;109.03;;;26.13;;
76176;SDS011;64938;47.696;8.066;2022-12-18T06:30:46;281.17;;;37.83;;
76176;SDS011;64938;47.696;8.066;2022-12-18T06:33:13;239.23;;;34.40;;
76176;SDS011;64938;47.696;8.066;2022-12-18T06:35:39;171.43;;;29.57;;
76176;SDS011;64938;47.696;8.066;2022-12-18T06:38:05;293.57;;;37.90;;
76176;SDS011;64938;47.696;8.066;2022-12-18T06:40:31;232.80;;;34.57;;
76176;SDS011;64938;47.696;8.066;2022-12-18T06:42:57;370.20;;;41.97;;
76176;SDS011;64938;47.696;8.066;2022-12-18T06:45:22;204.43;;;29.90;;
76176;SDS011;64938;47.696;8.066;2022-12-18T06:47:48;211.90;;;31.93;;
76176;SDS011;64938;47.696;8.066;2022-12-18T06:50:13;251.10;;;31.80;;
76176;SDS011;64938;47.696;8.066;2022-12-18T06:52:39;276.77;;;34.70;;
76176;SDS011;64938;47.696;8.066;2022-12-18T06:55:06;179.00;;;30.03;;
76176;SDS011;64938;47.696;8.066;2022-12-18T06:57:32;152.83;;;27.70;;
76176;SDS011;64938;47.696;8.066;2022-12-18T06:59:57;428.43;;;42.90;;
76176;SDS011;64938;47.696;8.066;2022-12-18T07:02:22;231.67;;;35.40;;
76176;SDS011;64938;47.696;8.066;2022-12-18T07:04:49;174.87;;;30.47;;
76176;SDS011;64938;47.696;8.066;2022-12-18T07:07:14;181.60;;;31.87;;
76176;SDS011;64938;47.696;8.066;2022-12-18T07:09:40;134.07;;;29.20;;
76176;SDS011;64938;47.696;8.066;2022-12-18T07:12:06;158.97;;;27.40;;
76176;SDS011;64938;47.696;8.066;2022-12-18T07:14:32;126.80;;;28.10;;
76176;SDS011;64938;47.696;8.066;2022-12-18T07:16:59;137.27;;;26.87;;
76176;SDS011;64938;47.696;8.066;2022-12-18T07:19:24;140.83;;;27.40;;
76176;SDS011;64938;47.696;8.066;2022-12-18T07:21:50;99.07;;;25.40;;
76176;SDS011;64938;47.696;8.066;2022-12-18T07:24:16;108.87;;;26.47;;
76176;SDS011;64938;47.696;8.066;2022-12-18T07:26:41;156.17;;;29.23;;
76176;SDS011;64938;47.696;8.066;2022-12-18T07:29:07;127.23;;;22.93;;
76176;SDS011;64938;47.696;8.066;2022-12-18T07:31:33;57.50;;;21.70;;
76176;SDS011;64938;47.696;8.066;2022-12-18T07:33:59;78.23;;;22.10;;
76176;SDS011;64938;47.696;8.066;2022-12-18T07:36:25;117.87;;;24.77;;
76176;SDS011;64938;47.696;8.066;2022-12-18T07:38:51;81.93;;;22.63;;
76176;SDS011;64938;47.696;8.066;2022-12-18T07:41:18;209.30;;;30.43;;
76176;SDS011;64938;47.696;8.066;2022-12-18T07:43:44;159.37;;;28.67;;
76176;SDS011;64938;47.696;8.066;2022-12-18T07:46:10;116.97;;;24.67;;
76176;SDS011;64938;47.696;8.066;2022-12-18T07:48:36;90.17;;;23.77;;
76176;SDS011;64938;47.696;8.066;2022-12-18T07:51:03;141.33;;;30.57;;
76176;SDS011;64938;47.696;8.066;2022-12-18T07:53:30;80.57;;;23.30;;
76176;SDS011;64938;47.696;8.066;2022-12-18T07:55:56;71.10;;;22.97;;
76176;SDS011;64938;47.696;8.066;2022-12-18T07:58:24;162.90;;;27.67;;
76176;SDS011;64938;47.696;8.066;2022-12-18T08:00:51;137.73;;;25.67;;
76176;SDS011;64938;47.696;8.066;2022-12-18T08:03:17;134.33;;;29.90;;
76176;SDS011;64938;47.696;8.066;2022-12-18T08:05:43;115.20;;;30.38;;
76176;SDS011;64938;47.696;8.066;2022-12-18T08:08:09;305.80;;;39.03;;
76176;SDS011;64938;47.696;8.066;2022-12-18T08:10:34;68.33;;;20.90;;
76176;SDS011;64938;47.696;8.066;2022-12-18T08:13:00;165.07;;;29.57;;
76176;SDS011;64938;47.696;8.066;2022-12-18T08:15:25;148.33;;;29.23;;
76176;SDS011;64938;47.696;8.066;2022-12-18T08:17:51;109.77;;;24.73;;
76176;SDS011;64938;47.696;8.066;2022-12-18T08:20:17;131.87;;;24.87;;
76176;SDS011;64938;47.696;8.066;2022-12-18T08:22:48;259.73;;;31.70;;
76176;SDS011;64938;47.696;8.066;2022-12-18T08:25:15;88.07;;;24.33;;
76176;SDS011;64938;47.696;8.066;2022-12-18T08:27:40;153.70;;;27.23;;
76176;SDS011;64938;47.696;8.066;2022-12-18T08:30:06;185.23;;;34.13;;
76176;SDS011;64938;47.696;8.066;2022-12-18T08:32:32;320.30;;;37.63;;
76176;SDS011;64938;47.696;8.066;2022-12-18T08:34:58;280.00;;;36.30;;
76176;SDS011;64938;47.696;8.066;2022-12-18T08:37:24;292.93;;;34.43;;
76176;SDS011;64938;47.696;8.066;2022-12-18T08:39:50;135.00;;;27.47;;
76176;SDS011;64938;47.696;8.066;2022-12-18T08:42:15;97.00;;;24.93;;
76176;SDS011;64938;47.696;8.066;2022-12-18T08:45:00;127.97;;;27.63;;
76176;SDS011;64938;47.696;8.066;2022-12-18T08:47:26;149.77;;;30.13;;
76176;SDS011;64938;47.696;8.066;2022-12-18T08:49:51;127.77;;;26.10;;
76176;SDS011;64938;47.696;8.066;2022-12-18T08:52:17;361.23;;;37.60;;
76176;SDS011;64938;47.696;8.066;2022-12-18T08:54:42;112.33;;;26.47;;
76176;SDS011;64938;47.696;8.066;2022-12-18T08:57:08;337.97;;;39.87;;
76176;SDS011;64938;47.696;8.066;2022-12-18T08:59:35;157.13;;;28.37;;
76176;SDS011;64938;47.696;8.066;2022-12-18T09:02:00;85.77;;;24.83;;
76176;SDS011;64938;47.696;8.066;2022-12-18T09:04:26;96.63;;;24.60;;
76176;SDS011;64938;47.696;8.066;2022-12-18T09:06:51;154.43;;;28.37;;
76176;SDS011;64938;47.696;8.066;2022-12-18T09:09:19;138.23;;;26.47;;
76176;SDS011;64938;47.696;8.066;2022-12-18T09:11:46;96.00;;;24.27;;
76176;SDS011;64938;47.696;8.066;2022-12-18T09:14:11;144.43;;;25.67;;
76176;SDS011;64938;47.696;8.066;2022-12-18T09:16:37;225.10;;;29.93;;
76176;SDS011;64938;47.696;8.066;2022-12-18T09:19:03;244.33;;;33.00;;
76176;SDS011;64938;47.696;8.066;2022-12-18T09:21:31;213.67;;;30.40;;
76176;SDS011;64938;47.696;8.066;2022-12-18T09:23:59;104.30;;;25.90;;
76176;SDS011;64938;47.696;8.066;2022-12-18T09:26:25;269.50;;;34.53;;
76176;SDS011;64938;47.696;8.066;2022-12-18T09:28:51;397.00;;;41.30;;
76176;SDS011;64938;47.696;8.066;2022-12-18T09:31:17;225.03;;;32.30;;
76176;SDS011;64938;47.696;8.066;2022-12-18T09:33:44;269.93;;;35.77;;
76176;SDS011;64938;47.696;8.066;2022-12-18T09:36:12;362.03;;;38.93;;
76176;SDS011;64938;47.696;8.066;2022-12-18T09:38:41;214.77;;;30.20;;
76176;SDS011;64938;47.696;8.066;2022-12-18T09:43:59;293.80;;;37.30;;
76176;SDS011;64938;47.696;8.066;2022-12-18T09:46:28;237.40;;;33.30;;
76176;SDS011;64938;47.696;8.066;2022-12-18T09:48:57;175.70;;;31.83;;
76176;SDS011;64938;47.696;8.066;2022-12-18T09:51:30;63.30;;;24.37;;
76176;SDS011;64938;47.696;8.066;2022-12-18T09:54:01;155.33;;;29.67;;
76176;SDS011;64938;47.696;8.066;2022-12-18T09:56:31;255.50;;;32.97;;
76176;SDS011;64938;47.696;8.066;2022-12-18T09:59:02;139.63;;;29.00;;
76176;SDS011;64938;47.696;8.066;2022-12-18T10:01:29;186.97;;;30.37;;
76176;SDS011;64938;47.696;8.066;2022-12-18T10:03:55;60.23;;;21.53;;
76176;SDS011;64938;47.696;8.066;2022-12-18T10:06:26;153.13;;;25.97;;
76176;SDS011;64938;47.696;8.066;2022-12-18T10:09:05;151.70;;;26.60;;
76176;SDS011;64938;47.696;8.066;2022-12-18T10:14:33;99.17;;;24.97;;
76176;SDS011;64938;47.696;8.066;2022-12-18T10:19:43;86.57;;;21.73;;
76176;SDS011;64938;47.696;8.066;2022-12-18T10:24:53;51.43;;;21.30;;
76176;SDS011;64938;47.696;8.066;2022-12-18T10:27:25;42.37;;;20.80;;
76176;SDS011;64938;47.696;8.066;2022-12-18T10:29:51;65.67;;;20.17;;
76176;SDS011;64938;47.696;8.066;2022-12-18T10:32:22;57.87;;;23.20;;
76176;SDS011;64938;47.696;8.066;2022-12-18T10:34:52;44.83;;;21.93;;
76176;SDS011;64938;47.696;8.066;2022-12-18T10:37:20;69.13;;;24.30;;
76176;SDS011;64938;47.696;8.066;2022-12-18T10:40:04;40.73;;;21.07;;
76176;SDS011;64938;47.696;8.066;2022-12-18T10:42:35;47.20;;;22.30;;
76176;SDS011;64938;47.696;8.066;2022-12-18T10:45:13;35.80;;;20.20;;
76176;SDS011;64938;47.696;8.066;2022-12-18T10:47:44;36.10;;;19.50;;
76176;SDS011;64938;47.696;8.066;2022-12-18T10:50:25;42.33;;;20.63;;
76176;SDS011;64938;47.696;8.066;2022-12-18T10:52:58;33.73;;;19.67;;
76176;SDS011;64938;47.696;8.066;2022-12-18T10:55:35;34.93;;;21.40;;
76176;SDS011;64938;47.696;8.066;2022-12-18T11:01:12;36.47;;;19.73;;
76176;SDS011;64938;47.696;8.066;2022-12-18T11:06:09;31.97;;;18.70;;
76176;SDS011;64938;47.696;8.066;2022-12-18T11:08:36;33.93;;;19.87;;
76176;SDS011;64938;47.696;8.066;2022-12-18T11:11:02;33.27;;;18.90;;
76176;SDS011;64938;47.696;8.066;2022-12-18T11:13:30;35.00;;;20.43;;
76176;SDS011;64938;47.696;8.066;2022-12-18T11:15:56;34.10;;;19.70;;
76176;SDS011;64938;47.696;8.066;2022-12-18T11:18:28;36.40;;;20.83;;
76176;SDS011;64938;47.696;8.066;2022-12-18T11:20:59;35.70;;;20.30;;
76176;SDS011;64938;47.696;8.066;2022-12-18T11:23:33;48.47;;;21.90;;
76176;SDS011;64938;47.696;8.066;2022-12-18T11:26:00;39.00;;;20.97;;
76176;SDS011;64938;47.696;8.066;2022-12-18T11:31:35;37.70;;;20.27;;
76176;SDS011;64938;47.696;8.066;2022-12-18T11:36:28;44.03;;;21.00;;
76176;SDS011;64938;47.696;8.066;2022-12-18T11:38:58;42.43;;;20.77;;
76176;SDS011;64938;47.696;8.066;2022-12-18T11:41:30;36.70;;;20.77;;
76176;SDS011;64938;47.696;8.066;2022-12-18T11:44:20;74.87;;;23.83;;
76176;SDS011;64938;47.696;8.066;2022-12-18T11:46:55;47.47;;;20.57;;
76176;SDS011;64938;47.696;8.066;2022-12-18T11:49:26;39.90;;;19.90;;
76176;SDS011;64938;47.696;8.066;2022-12-18T11:54:24;92.17;;;23.67;;
76176;SDS011;64938;47.696;8.066;2022-12-18T11:56:54;30.77;;;18.57;;
76176;SDS011;64938;47.696;8.066;2022-12-18T12:01:53;33.27;;;18.80;;
76176;SDS011;64938;47.696;8.066;2022-12-18T12:07:23;42.20;;;20.50;;
76176;SDS011;64938;47.696;8.066;2022-12-18T12:15:20;50.43;;;20.70;;
76176;SDS011;64938;47.696;8.066;2022-12-18T12:18:03;30.50;;;19.53;;
76176;SDS011;64938;47.696;8.066;2022-12-18T12:26:27;31.90;;;19.20;;
76176;SDS011;64938;47.696;8.066;2022-12-18T12:29:08;37.20;;;19.40;;
76176;SDS011;64938;47.696;8.066;2022-12-18T12:32:09;48.60;;;20.47;;
76176;SDS011;64938;47.696;8.066;2022-12-18T12:37:46;113.77;;;25.30;;
76176;SDS011;64938;47.696;8.066;2022-12-18T12:40:17;108.80;;;25.30;;
76176;SDS011;64938;47.696;8.066;2022-12-18T12:42:46;144.10;;;26.47;;
76176;SDS011;64938;47.696;8.066;2022-12-18T12:45:46;57.67;;;20.53;;
76176;SDS011;64938;47.696;8.066;2022-12-18T12:48:17;70.20;;;22.80;;
76176;SDS011;64938;47.696;8.066;2022-12-18T12:50:47;55.30;;;20.97;;
76176;SDS011;64938;47.696;8.066;2022-12-18T12:53:26;60.43;;;21.47;;
76176;SDS011;64938;47.696;8.066;2022-12-18T12:55:56;51.60;;;18.10;;
76176;SDS011;64938;47.696;8.066;2022-12-18T12:58:32;28.20;;;17.30;;
76176;SDS011;64938;47.696;8.066;2022-12-18T13:06:19;70.50;;;22.40;;
76176;SDS011;64938;47.696;8.066;2022-12-18T13:08:56;114.13;;;24.60;;
76176;SDS011;64938;47.696;8.066;2022-12-18T13:11:31;209.07;;;31.70;;
76176;SDS011;64938;47.696;8.066;2022-12-18T13:14:22;63.60;;;21.80;;
76176;SDS011;64938;47.696;8.066;2022-12-18T13:17:13;81.40;;;22.97;;
76176;SDS011;64938;47.696;8.066;2022-12-18T13:20:12;92.10;;;23.20;;
76176;SDS011;64938;47.696;8.066;2022-12-18T13:22:45;29.63;;;16.97;;
76176;SDS011;64938;47.696;8.066;2022-12-18T13:25:30;98.77;;;24.67;;
76176;SDS011;64938;47.696;8.066;2022-12-18T13:33:45;57.10;;;20.83;;
76176;SDS011;64938;47.696;8.066;2022-12-18T13:38:35;57.10;;;23.17;;
76176;SDS011;64938;47.696;8.066;2022-12-18T13:43:41;34.03;;;18.90;;
76176;SDS011;64938;47.696;8.066;2022-12-18T13:52:12;32.57;;;18.63;;
76176;SDS011;64938;47.696;8.066;2022-12-18T13:54:52;32.73;;;18.70;;
76176;SDS011;64938;47.696;8.066;2022-12-18T13:57:33;35.07;;;18.87;;
76176;SDS011;64938;47.696;8.066;2022-12-18T14:00:25;26.90;;;16.33;;
76176;SDS011;64938;47.696;8.066;2022-12-18T14:02:53;30.30;;;17.20;;
76176;SDS011;64938;47.696;8.066;2022-12-18T14:05:23;41.10;;;17.40;;
76176;SDS011;64938;47.696;8.066;2022-12-18T14:07:49;70.30;;;21.27;;
76176;SDS011;64938;47.696;8.066;2022-12-18T14:10:15;74.23;;;20.67;;
76176;SDS011;64938;47.696;8.066;2022-12-18T14:12:44;38.73;;;19.30;;
76176;SDS011;64938;47.696;8.066;2022-12-18T14:17:53;36.67;;;17.57;;
76176;SDS011;64938;47.696;8.066;2022-12-18T14:20:21;32.40;;;18.37;;
76176;SDS011;64938;47.696;8.066;2022-12-18T14:22:47;31.70;;;17.40;;
76176;SDS011;64938;47.696;8.066;2022-12-18T14:25:18;32.97;;;18.57;;
76176;SDS011;64938;47.696;8.066;2022-12-18T14:27:45;37.20;;;18.20;;
76176;SDS011;64938;47.696;8.066;2022-12-18T14:35:35;32.63;;;17.40;;
76176;SDS011;64938;47.696;8.066;2022-12-18T14:43:25;38.77;;;18.20;;
76176;SDS011;64938;47.696;8.066;2022-12-18T14:45:52;36.40;;;16.70;;
76176;SDS011;64938;47.696;8.066;2022-12-18T14:50:54;47.23;;;18.07;;
76176;SDS011;64938;47.696;8.066;2022-12-18T14:53:32;74.47;;;22.50;;
76176;SDS011;64938;47.696;8.066;2022-12-18T14:55:59;127.67;;;27.17;;
76176;SDS011;64938;47.696;8.066;2022-12-18T14:58:25;44.07;;;18.47;;
76176;SDS011;64938;47.696;8.066;2022-12-18T15:00:51;137.03;;;24.53;;
76176;SDS011;64938;47.696;8.066;2022-12-18T15:03:20;100.63;;;22.90;;
76176;SDS011;64938;47.696;8.066;2022-12-18T15:05:48;81.60;;;21.53;;
76176;SDS011;64938;47.696;8.066;2022-12-18T15:08:24;96.97;;;22.90;;
76176;SDS011;64938;47.696;8.066;2022-12-18T15:10:53;250.47;;;33.87;;
76176;SDS011;64938;47.696;8.066;2022-12-18T15:13:22;170.50;;;29.83;;
76176;SDS011;64938;47.696;8.066;2022-12-18T15:15:49;130.50;;;24.20;;
76176;SDS011;64938;47.696;8.066;2022-12-18T15:18:16;77.17;;;20.20;;
76176;SDS011;64938;47.696;8.066;2022-12-18T15:20:46;99.00;;;22.00;;
76176;SDS011;64938;47.696;8.066;2022-12-18T15:26:10;42.40;;;19.07;;
76176;SDS011;64938;47.696;8.066;2022-12-18T15:28:43;39.70;;;18.40;;
76176;SDS011;64938;47.696;8.066;2022-12-18T15:34:28;37.13;;;18.00;;
76176;SDS011;64938;47.696;8.066;2022-12-18T15:36:54;33.87;;;18.20;;
76176;SDS011;64938;47.696;8.066;2022-12-18T15:39:26;62.80;;;26.35;;
76176;SDS011;64938;47.696;8.066;2022-12-18T15:41:54;38.83;;;21.13;;
76176;SDS011;64938;47.696;8.066;2022-12-18T15:44:39;39.93;;;19.13;;
76176;SDS011;64938;47.696;8.066;2022-12-18T15:47:09;34.80;;;18.20;;
76176;SDS011;64938;47.696;8.066;2022-12-18T15:49:37;34.50;;;18.77;;
76176;SDS011;64938;47.696;8.066;2022-12-18T15:52:03;32.40;;;18.80;;
76176;SDS011;64938;47.696;8.066;2022-12-18T15:54:29;33.60;;;19.60;;
76176;SDS011;64938;47.696;8.066;2022-12-18T15:57:13;41.33;;;18.10;;
76176;SDS011;64938;47.696;8.066;2022-12-18T15:59:48;35.40;;;18.50;;
76176;SDS011;64938;47.696;8.066;2022-12-18T16:02:21;30.60;;;18.30;;
76176;SDS011;64938;47.696;8.066;2022-12-18T16:04:47;33.43;;;17.50;;
76176;SDS011;64938;47.696;8.066;2022-12-18T16:07:13;32.00;;;18.73;;
76176;SDS011;64938;47.696;8.066;2022-12-18T16:09:43;34.87;;;17.70;;
76176;SDS011;64938;47.696;8.066;2022-12-18T16:12:21;32.30;;;18.90;;
76176;SDS011;64938;47.696;8.066;2022-12-18T16:14:48;32.87;;;18.23;;
76176;SDS011;64938;47.696;8.066;2022-12-18T16:17:14;30.60;;;17.20;;
76176;SDS011;64938;47.696;8.066;2022-12-18T16:19:43;32.20;;;17.57;;
76176;SDS011;64938;47.696;8.066;2022-12-18T16:22:17;31.93;;;16.97;;
76176;SDS011;64938;47.696;8.066;2022-12-18T16:24:55;26.30;;;16.37;;
76176;SDS011;64938;47.696;8.066;2022-12-18T16:27:26;35.30;;;17.87;;